Time;durP1;ratioP1;P1;durP2;ratioP2;P2;SDS_P1;SDS_P2;PMS_P1;PMS_P2;Temp;Humidity;BMP_temperature;BMP_pressure;BME280_temperature;BME280_humidity;BME280_pressure;Samples;Min_cycle;Max_cycle;Signal;HPM_P1;HPM_P2
2022/07/18 00:01:12;;;;;;;24.13;15.63;;;21.00;68.70;;;;;;7028229;28;20761;-78
2022/07/18 00:04:34;;;;;;;11.10;7.53;;;21.00;68.10;;;;;;7033957;28;20837;-79
2022/07/18 00:07:56;;;;;;;4.70;2.50;;;21.00;68.20;;;;;;7055387;28;20453;-80
2022/07/18 00:11:20;;;;;;;4.20;2.30;;;20.90;68.30;;;;;;7013202;28;20423;-79
2022/07/18 00:14:42;;;;;;;4.10;2.13;;;20.70;68.10;;;;;;7045084;28;20456;-78
2022/07/18 00:18:05;;;;;;;3.88;2.08;;;20.60;68.80;;;;;;7027758;28;20429;-79
2022/07/18 00:21:27;;;;;;;4.30;2.13;;;20.40;69.50;;;;;;7011309;28;20434;-79
2022/07/18 00:24:49;;;;;;;4.10;2.30;;;20.40;69.90;;;;;;6999189;28;20446;-80
2022/07/18 00:28:13;;;;;;;3.50;2.13;;;20.30;69.90;;;;;;7038320;28;20429;-78
2022/07/18 00:31:36;;;;;;;4.13;2.10;;;20.10;70.40;;;;;;7054298;28;20543;-78
2022/07/18 00:34:58;;;;;;;4.45;2.10;;;19.90;70.90;;;;;;7042557;28;20497;-81
2022/07/18 00:38:20;;;;;;;4.32;2.38;;;19.80;71.10;;;;;;7022726;28;20859;-78
2022/07/18 00:41:47;;;;;;;4.00;2.40;;;19.70;71.70;;;;;;6999045;28;20432;-80
2022/07/18 00:45:11;;;;;;;3.95;2.28;;;19.60;71.80;;;;;;6999580;28;20928;-76
2022/07/18 00:48:33;;;;;;;4.30;2.38;;;19.70;72.00;;;;;;7041013;28;20474;-78
2022/07/18 00:51:55;;;;;;;4.38;2.30;;;19.90;71.90;;;;;;7029134;28;20461;-79
2022/07/18 00:55:18;;;;;;;4.90;2.30;;;19.80;71.60;;;;;;7026201;28;20426;-80
2022/07/18 00:58:40;;;;;;;3.75;2.35;;;19.60;71.90;;;;;;7047599;28;20424;-80
2022/07/18 01:02:02;;;;;;;3.97;2.30;;;19.60;72.30;;;;;;7052315;28;20439;-79
2022/07/18 01:05:24;;;;;;;4.40;2.23;;;19.70;72.30;;;;;;7034891;28;20582;-79
2022/07/18 01:08:47;;;;;;;5.15;2.20;;;19.60;72.40;;;;;;7022720;28;20431;-80
2022/07/18 01:12:10;;;;;;;4.82;2.20;;;19.60;73.00;;;;;;7040159;28;20430;-80
2022/07/18 01:15:33;;;;;;;3.97;2.20;;;19.60;73.00;;;;;;7025997;28;20426;-79
2022/07/18 01:18:56;;;;;;;4.80;2.30;;;19.70;73.00;;;;;;7024535;28;20432;-80
2022/07/18 01:22:21;;;;;;;3.75;2.30;;;19.80;73.00;;;;;;7024582;28;20425;-79
2022/07/18 01:25:43;;;;;;;4.50;2.40;;;19.80;72.70;;;;;;7025554;28;20429;-80
2022/07/18 01:29:06;;;;;;;5.20;2.38;;;19.60;73.00;;;;;;7048757;28;20435;-76
2022/07/18 01:32:28;;;;;;;4.72;2.20;;;19.40;73.30;;;;;;7038678;28;20437;-80
2022/07/18 01:35:51;;;;;;;3.67;2.10;;;19.40;73.90;;;;;;7025790;28;20434;-80
2022/07/18 01:39:14;;;;;;;3.50;2.30;;;19.50;74.00;;;;;;7024746;28;20520;-80
2022/07/18 01:42:36;;;;;;;4.57;2.40;;;19.50;73.60;;;;;;6997520;28;20467;-78
2022/07/18 01:45:59;;;;;;;4.30;2.53;;;19.40;74.00;;;;;;6998052;28;20438;-80
2022/07/18 01:49:22;;;;;;;4.05;2.50;;;19.10;74.30;;;;;;7052042;28;20849;-78
2022/07/18 01:52:44;;;;;;;4.45;2.42;;;19.00;74.90;;;;;;7047456;28;20439;-79
2022/07/18 01:56:09;;;;;;;3.83;2.30;;;19.00;75.20;;;;;;7027133;28;20433;-79
2022/07/18 01:59:31;;;;;;;3.83;2.30;;;19.10;74.90;;;;;;7022975;28;20773;-78
2022/07/18 02:02:53;;;;;;;4.93;2.38;;;19.20;75.10;;;;;;7053232;28;20431;-78
2022/07/18 02:06:15;;;;;;;4.50;2.60;;;19.20;75.10;;;;;;7026846;28;20432;-81
2022/07/18 02:09:37;;;;;;;4.43;2.40;;;19.20;75.10;;;;;;7048619;28;20460;-77
2022/07/18 02:13:01;;;;;;;4.55;2.40;;;19.00;75.40;;;;;;7043965;28;20430;-81
2022/07/18 02:16:23;;;;;;;4.03;2.50;;;18.90;75.90;;;;;;7024286;28;20843;-80
2022/07/18 02:19:45;;;;;;;5.53;2.53;;;18.80;76.10;;;;;;7043279;28;20460;-80
2022/07/18 02:23:08;;;;;;;4.65;2.55;;;18.70;76.50;;;;;;7050720;28;20431;-80
2022/07/18 02:26:30;;;;;;;4.13;2.40;;;18.60;77.00;;;;;;7053628;28;20420;-79
2022/07/18 02:29:53;;;;;;;4.30;2.25;;;18.70;77.10;;;;;;7026271;28;20478;-80
2022/07/18 02:33:16;;;;;;;5.03;2.40;;;18.70;77.00;;;;;;7037461;28;20435;-79
2022/07/18 02:36:38;;;;;;;4.47;2.60;;;18.50;77.30;;;;;;7028922;28;20443;-80
2022/07/18 02:40:00;;;;;;;4.60;2.63;;;18.40;77.90;;;;;;7042950;28;20540;-79
2022/07/18 02:43:22;;;;;;;4.30;2.50;;;18.30;78.40;;;;;;7022679;28;20922;-79
2022/07/18 02:46:46;;;;;;;5.95;2.50;;;18.20;78.80;;;;;;7039434;28;20424;-78
2022/07/18 02:50:09;;;;;;;3.70;2.25;;;18.10;78.60;;;;;;7032602;28;20431;-81
2022/07/18 02:53:31;;;;;;;4.65;2.42;;;18.00;79.20;;;;;;7052053;28;20493;-80
2022/07/18 02:56:54;;;;;;;4.43;2.72;;;18.00;79.20;;;;;;7033952;28;20818;-79
2022/07/18 03:00:17;;;;;;;3.90;2.60;;;18.00;79.80;;;;;;7026686;28;20471;-80
2022/07/18 03:03:41;;;;;;;4.25;2.42;;;18.00;80.10;;;;;;7041364;28;20467;-79
2022/07/18 03:07:03;;;;;;;4.07;2.20;;;17.90;79.70;;;;;;6996064;28;20427;-79
2022/07/18 03:10:25;;;;;;;4.68;2.38;;;17.90;79.70;;;;;;7017550;28;20428;-80
2022/07/18 03:13:47;;;;;;;3.40;2.30;;;17.90;80.10;;;;;;7048417;28;20967;-79
2022/07/18 03:17:09;;;;;;;4.25;2.47;;;18.00;80.20;;;;;;7027777;28;20444;-79
2022/07/18 03:20:33;;;;;;;5.43;2.50;;;18.00;79.70;;;;;;7036428;28;20950;-76
2022/07/18 03:23:55;;;;;;;3.92;2.50;;;18.00;80.30;;;;;;7057735;28;20768;-78
2022/07/18 03:27:17;;;;;;;4.32;2.50;;;17.90;80.50;;;;;;7055858;28;20431;-78
2022/07/18 03:30:39;;;;;;;4.63;2.33;;;17.90;80.70;;;;;;7055051;28;20844;-79
2022/07/18 03:34:01;;;;;;;5.07;2.50;;;18.00;80.70;;;;;;7050932;28;20437;-78
2022/07/18 03:37:26;;;;;;;5.13;2.65;;;18.00;80.80;;;;;;7028384;28;20461;-78
2022/07/18 03:40:48;;;;;;;5.15;2.60;;;17.90;80.40;;;;;;7040028;28;20472;-80
2022/07/18 03:44:10;;;;;;;4.43;2.60;;;17.80;81.10;;;;;;7031028;28;20434;-78
2022/07/18 03:47:32;;;;;;;5.03;2.50;;;17.80;81.70;;;;;;7029572;28;20421;-80
2022/07/18 03:50:54;;;;;;;4.30;2.63;;;17.80;82.00;;;;;;7033853;28;20460;-78
2022/07/18 03:54:18;;;;;;;3.92;2.33;;;17.80;81.50;;;;;;7055788;28;20967;-76
2022/07/18 03:57:40;;;;;;;5.15;2.40;;;17.80;81.40;;;;;;7050539;28;20469;-77
2022/07/18 04:01:02;;;;;;;4.50;2.40;;;17.80;82.00;;;;;;7054682;28;20435;-78
2022/07/18 04:04:24;;;;;;;4.45;2.35;;;17.70;81.60;;;;;;7046730;28;20444;-76
2022/07/18 04:07:46;;;;;;;5.47;2.50;;;17.60;82.10;;;;;;7027371;28;20931;-78
2022/07/18 04:11:09;;;;;;;5.40;2.47;;;17.50;83.20;;;;;;7027189;28;20425;-76
2022/07/18 04:14:31;;;;;;;4.97;2.70;;;17.40;82.90;;;;;;7027097;28;20421;-77
2022/07/18 04:17:54;;;;;;;3.95;2.63;;;17.20;83.50;;;;;;7025735;28;20911;-77
2022/07/18 04:21:17;;;;;;;4.65;2.60;;;17.10;84.00;;;;;;7025937;28;20441;-78
2022/07/18 04:24:39;;;;;;;5.93;2.63;;;17.00;84.70;;;;;;7025267;28;20548;-78
2022/07/18 04:28:03;;;;;;;5.55;2.90;;;17.20;85.20;;;;;;7026739;28;20465;-77
2022/07/18 04:31:25;;;;;;;5.13;2.50;;;17.20;85.10;;;;;;7024899;28;20433;-78
2022/07/18 04:34:47;;;;;;;4.32;2.60;;;17.30;85.10;;;;;;7026036;28;20433;-77
2022/07/18 04:38:11;;;;;;;4.57;2.45;;;17.40;84.70;;;;;;7026552;28;20472;-78
2022/07/18 04:41:33;;;;;;;5.17;2.57;;;17.40;85.00;;;;;;7025727;28;20463;-79
2022/07/18 04:44:57;;;;;;;5.07;2.70;;;17.50;84.80;;;;;;7026320;28;20477;-79
2022/07/18 04:48:19;;;;;;;4.28;2.75;;;17.50;85.10;;;;;;7025553;28;20433;-78
2022/07/18 04:51:41;;;;;;;4.03;2.45;;;17.40;85.10;;;;;;7026294;28;20835;-78
2022/07/18 04:55:03;;;;;;;4.60;2.67;;;17.40;84.60;;;;;;7025992;28;20436;-77
2022/07/18 04:58:25;;;;;;;4.35;2.40;;;17.40;85.20;;;;;;7026046;28;20430;-77
2022/07/18 05:01:48;;;;;;;4.78;2.60;;;17.40;85.60;;;;;;7023742;28;20467;-78
2022/07/18 05:05:11;;;;;;;4.93;2.70;;;17.30;85.60;;;;;;7025583;28;20444;-78
2022/07/18 05:08:34;;;;;;;5.18;2.90;;;17.30;85.90;;;;;;7025740;28;20426;-80
2022/07/18 05:11:56;;;;;;;5.07;2.88;;;17.30;85.50;;;;;;7024196;28;20425;-78
2022/07/18 05:15:21;;;;;;;5.30;3.20;;;17.30;85.90;;;;;;7024657;28;20469;-75
2022/07/18 05:18:45;;;;;;;5.95;2.88;;;17.40;86.20;;;;;;7026640;28;20422;-79
2022/07/18 05:22:07;;;;;;;5.88;2.97;;;17.40;86.50;;;;;;7027010;28;20426;-77
2022/07/18 05:25:29;;;;;;;5.50;2.92;;;17.50;86.80;;;;;;7025514;28;20434;-77
2022/07/18 05:28:51;;;;;;;5.85;2.75;;;17.50;87.30;;;;;;7026352;28;20439;-76
2022/07/18 05:32:13;;;;;;;6.13;2.90;;;17.50;87.30;;;;;;7024160;28;20469;-78
2022/07/18 05:35:37;;;;;;;5.63;3.03;;;17.60;86.90;;;;;;7024974;28;20469;-77
2022/07/18 05:38:59;;;;;;;4.95;2.90;;;17.80;86.70;;;;;;7024885;28;20426;-79
2022/07/18 05:42:21;;;;;;;4.95;2.60;;;17.80;84.60;;;;;;7026030;28;20429;-76
2022/07/18 05:45:43;;;;;;;5.30;2.77;;;17.80;83.10;;;;;;7023223;28;20949;-77
2022/07/18 05:49:05;;;;;;;4.40;2.60;;;17.90;83.50;;;;;;7024503;28;20429;-79
2022/07/18 05:52:28;;;;;;;4.90;2.70;;;17.90;84.20;;;;;;7024771;28;20441;-79
2022/07/18 05:55:50;;;;;;;4.57;2.30;;;18.00;84.70;;;;;;7023961;28;20899;-78
2022/07/18 05:59:13;;;;;;;5.05;2.50;;;18.10;84.30;;;;;;7023390;28;20425;-79
2022/07/18 06:02:35;;;;;;;4.32;2.33;;;18.10;84.10;;;;;;7024113;28;20425;-78
2022/07/18 06:05:57;;;;;;;4.72;2.30;;;18.20;83.20;;;;;;7023252;28;20449;-79
2022/07/18 06:09:21;;;;;;;4.57;2.30;;;18.30;82.70;;;;;;7019681;28;20438;-79
2022/07/18 06:12:43;;;;;;;4.67;2.50;;;18.40;82.20;;;;;;6995753;28;20554;-78
2022/07/18 06:16:06;;;;;;;4.95;2.38;;;18.40;83.20;;;;;;6995778;28;20431;-78
2022/07/18 06:19:28;;;;;;;4.63;2.25;;;18.50;82.90;;;;;;6995752;28;20435;-77
2022/07/18 06:22:50;;;;;;;4.67;2.40;;;18.60;82.50;;;;;;7002206;28;20456;-78
2022/07/18 06:26:14;;;;;;;3.80;2.03;;;18.70;82.30;;;;;;7023595;28;20433;-77
2022/07/18 06:29:36;;;;;;;5.05;2.10;;;18.80;79.60;;;;;;7023301;28;20469;-80
2022/07/18 06:32:58;;;;;;;4.50;2.00;;;18.90;78.80;;;;;;7023993;28;20459;-79
2022/07/18 06:36:23;;;;;;;4.72;2.20;;;19.00;78.60;;;;;;7023314;28;20425;-78
2022/07/18 06:39:45;;;;;;;4.50;2.00;;;19.10;76.70;;;;;;7024028;28;20437;-79
2022/07/18 06:43:08;;;;;;;5.47;2.60;;;19.30;77.00;;;;;;7023103;28;20437;-78
2022/07/18 06:46:30;;;;;;;5.00;2.55;;;19.30;78.70;;;;;;7023139;28;20955;-78
2022/07/18 06:49:52;;;;;;;5.43;2.47;;;19.40;79.60;;;;;;7024171;28;20469;-77
2022/07/18 06:53:15;;;;;;;4.63;2.33;;;19.50;78.30;;;;;;7022043;28;20430;-78
2022/07/18 06:56:37;;;;;;;4.22;2.28;;;19.60;78.10;;;;;;7022288;28;20497;-79
2022/07/18 07:00:00;;;;;;;4.72;2.28;;;19.70;77.20;;;;;;7023047;28;20418;-80
2022/07/18 07:03:22;;;;;;;5.68;2.30;;;19.90;77.20;;;;;;7023192;28;20488;-79
2022/07/18 07:06:44;;;;;;;4.80;2.28;;;20.00;76.00;;;;;;7024243;28;20492;-79
2022/07/18 07:10:08;;;;;;;4.07;2.13;;;20.10;75.70;;;;;;7023637;28;20907;-76
2022/07/18 07:13:30;;;;;;;4.75;2.40;;;20.20;74.50;;;;;;7023441;28;20417;-78
2022/07/18 07:16:53;;;;;;;6.18;2.30;;;20.20;74.80;;;;;;7009650;28;20463;-76
2022/07/18 07:20:17;;;;;;;4.95;2.22;;;20.30;75.20;;;;;;7008125;28;20480;-77
2022/07/18 07:23:40;;;;;;;4.35;2.33;;;20.50;74.80;;;;;;7017336;28;20426;-78
2022/07/18 07:27:02;;;;;;;5.37;2.30;;;20.60;74.10;;;;;;7018283;28;20430;-77
2022/07/18 07:30:24;;;;;;;4.32;2.10;;;20.60;72.60;;;;;;7018553;28;20436;-78
2022/07/18 07:33:47;;;;;;;4.97;2.10;;;20.70;73.80;;;;;;7020000;28;20470;-75
2022/07/18 07:37:10;;;;;;;5.63;2.20;;;20.90;72.90;;;;;;7018999;28;20907;-76
2022/07/18 07:40:32;;;;;;;4.00;2.10;;;20.90;72.80;;;;;;7017977;28;20429;-79
2022/07/18 07:43:54;;;;;;;5.38;2.20;;;21.10;72.60;;;;;;7018314;28;20453;-77
2022/07/18 07:47:16;;;;;;;5.10;2.40;;;21.20;72.30;;;;;;7019069;28;20896;-78
2022/07/18 07:50:39;;;;;;;5.18;2.33;;;21.20;71.80;;;;;;7019151;28;20457;-77
2022/07/18 07:54:01;;;;;;;5.40;2.35;;;21.30;71.00;;;;;;7017008;28;20923;-76
2022/07/18 07:57:23;;;;;;;6.18;2.22;;;21.40;71.20;;;;;;7018807;28;20453;-79
2022/07/18 08:00:45;;;;;;;4.60;2.00;;;21.50;71.00;;;;;;7018559;28;20479;-79
2022/07/18 08:04:07;;;;;;;4.05;2.17;;;21.50;71.30;;;;;;7018575;28;20488;-79
2022/07/18 08:07:30;;;;;;;4.30;2.00;;;21.60;70.10;;;;;;7023432;28;20429;-79
2022/07/18 08:10:53;;;;;;;5.40;2.20;;;21.70;70.70;;;;;;7022675;28;20469;-78
2022/07/18 08:14:15;;;;;;;5.03;2.08;;;21.80;69.80;;;;;;7024250;28;20436;-78
2022/07/18 08:17:37;;;;;;;4.53;1.90;;;21.90;68.40;;;;;;7023948;28;20429;-78
2022/07/18 08:20:59;;;;;;;4.78;2.40;;;22.00;68.90;;;;;;7024009;28;20426;-78
2022/07/18 08:24:22;;;;;;;4.63;2.10;;;22.10;69.30;;;;;;7021912;28;20453;-78
2022/07/18 08:27:44;;;;;;;6.13;1.98;;;22.20;68.70;;;;;;7022934;28;20469;-79
2022/07/18 08:31:07;;;;;;;5.80;2.20;;;22.30;68.90;;;;;;7022070;28;20536;-77
2022/07/18 08:34:29;;;;;;;4.03;1.92;;;22.30;68.90;;;;;;7025209;28;20474;-78
2022/07/18 08:37:51;;;;;;;4.78;2.05;;;22.40;69.30;;;;;;7025140;28;20425;-79
2022/07/18 08:41:16;;;;;;;4.80;2.17;;;22.60;67.40;;;;;;7004258;28;20944;-80
2022/07/18 08:44:40;;;;;;;5.10;2.33;;;22.70;67.80;;;;;;6994891;28;20470;-80
2022/07/18 08:48:02;;;;;;;4.35;2.30;;;22.70;66.00;;;;;;6994984;28;20427;-78
2022/07/18 08:51:25;;;;;;;5.05;2.13;;;22.80;65.60;;;;;;7009872;28;20473;-78
2022/07/18 08:54:48;;;;;;;6.25;2.40;;;22.80;66.30;;;;;;7021300;28;20434;-78
2022/07/18 08:58:14;;;;;;;5.30;2.10;;;22.90;63.70;;;;;;7022781;28;20900;-79
2022/07/18 09:01:36;;;;;;;6.47;2.30;;;22.90;66.10;;;;;;7022569;28;20426;-78
2022/07/18 09:05:03;;;;;;;5.30;2.40;;;23.10;63.90;;;;;;7021967;28;21240;-77
2022/07/18 09:08:25;;;;;;;5.28;2.30;;;23.20;63.00;;;;;;7022885;28;20441;-78
2022/07/18 09:11:52;;;;;;;4.93;2.10;;;23.30;63.00;;;;;;7022613;28;20732;-79
2022/07/18 09:15:16;;;;;;;5.05;2.00;;;23.40;63.00;;;;;;7021390;28;20438;-76
2022/07/18 09:18:41;;;;;;;5.60;2.27;;;23.40;63.10;;;;;;7023506;28;20474;-77
2022/07/18 09:22:14;;;;;;;7.60;2.40;;;23.50;62.40;;;;;;7019555;28;20433;-76
2022/07/18 09:25:36;;;;;;;5.17;2.40;;;23.60;62.60;;;;;;7020450;28;20477;-77
2022/07/18 09:28:58;;;;;;;7.22;2.30;;;23.80;61.20;;;;;;7021164;28;20938;-77
2022/07/18 09:32:24;;;;;;;7.82;2.28;;;23.80;60.60;;;;;;7021376;28;20422;-79
2022/07/18 09:35:49;;;;;;;4.75;2.30;;;23.90;59.80;;;;;;7021684;28;20437;-78
2022/07/18 09:39:20;;;;;;;4.38;2.10;;;23.90;60.60;;;;;;7021777;28;20469;-77
2022/07/18 09:42:42;;;;;;;6.37;2.40;;;24.00;60.80;;;;;;7020513;28;20429;-78
2022/07/18 09:46:07;;;;;;;5.60;2.28;;;24.20;62.20;;;;;;7019014;28;20440;-78
2022/07/18 09:49:33;;;;;;;4.80;2.03;;;24.30;61.10;;;;;;7021746;28;20433;-76
2022/07/18 09:53:19;;;;;;;6.22;2.20;;;24.40;59.50;;;;;;7009050;28;20439;-77
2022/07/18 09:56:42;;;;;;;10.93;5.53;;;24.70;58.90;;;;;;6991066;28;20484;-78
2022/07/18 10:00:06;;;;;;;22.10;13.07;;;24.70;58.50;;;;;;6992994;28;20750;-76
2022/07/18 10:03:29;;;;;;;4.93;1.98;;;24.70;56.00;;;;;;6992307;28;20430;-78
2022/07/18 10:06:53;;;;;;;4.57;1.95;;;24.80;53.70;;;;;;7008520;28;20878;-79
2022/07/18 10:10:16;;;;;;;7.50;2.10;;;24.90;54.80;;;;;;7019920;28;20454;-77
2022/07/18 10:13:39;;;;;;;4.82;2.10;;;24.90;55.10;;;;;;7020072;28;20465;-80
2022/07/18 10:17:01;;;;;;;6.28;1.80;;;25.00;54.40;;;;;;6992542;28;20495;-80
2022/07/18 10:20:30;;;;;;;4.75;1.92;;;25.20;52.80;;;;;;6991443;28;20463;-78
2022/07/18 10:23:54;;;;;;;4.75;1.90;;;25.30;51.40;;;;;;6990130;28;20953;-80
2022/07/18 10:27:20;;;;;;;4.53;1.70;;;25.30;51.40;;;;;;6992149;28;20563;-79
2022/07/18 10:30:47;;;;;;;5.88;1.90;;;25.40;52.80;;;;;;7009035;28;20464;-86
2022/07/18 10:34:13;;;;;;;6.07;1.90;;;25.50;51.70;;;;;;7020458;28;20478;-80
2022/07/18 10:37:36;;;;;;;9.50;2.13;;;25.70;51.20;;;;;;7024006;28;20429;-77
2022/07/18 10:41:14;;;;;;;4.63;2.00;;;25.80;50.90;;;;;;7028617;28;20437;-79
2022/07/18 10:44:39;;;;;;;6.60;2.30;;;25.90;50.20;;;;;;7026096;28;20429;-78
2022/07/18 10:48:52;;;;;;;6.43;2.10;;;25.90;51.90;;;;;;7029725;28;20877;-80
2022/07/18 10:52:56;;;;;;;6.67;2.10;;;26.00;51.00;;;;;;7020059;28;20465;-80
2022/07/18 10:56:20;;;;;;;5.43;2.90;;;26.20;51.10;;;;;;7019700;28;20472;-78
2022/07/18 11:00:07;;;;;;;5.20;2.00;;;26.30;51.80;;;;;;7021051;28;21028;-76
2022/07/18 11:03:30;;;;;;;4.38;2.10;;;26.50;50.20;;;;;;7033499;28;20508;-79
2022/07/18 11:06:56;;;;;;;4.80;1.93;;;26.30;51.10;;;;;;7028797;28;20803;-78
2022/07/18 11:10:55;;;;;;;5.22;2.10;;;26.30;51.50;;;;;;7023782;28;20772;-79
2022/07/18 11:15:10;;;;;;;5.18;1.83;;;26.50;50.40;;;;;;7008256;28;20430;-79
2022/07/18 11:19:13;;;;;;;4.55;1.98;;;26.70;49.10;;;;;;6999147;28;20900;-78
2022/07/18 11:22:35;;;;;;;3.60;1.93;;;26.60;48.90;;;;;;6996979;28;20480;-78
2022/07/18 11:25:59;;;;;;;4.38;1.83;;;26.70;50.10;;;;;;7002520;28;20452;-80
2022/07/18 11:29:21;;;;;;;3.40;2.00;;;27.40;51.50;;;;;;7014710;28;20957;-79
2022/07/18 11:32:43;;;;;;;5.13;1.80;;;27.40;50.40;;;;;;7023972;28;20448;-79
2022/07/18 11:36:10;;;;;;;3.93;1.80;;;27.40;49.80;;;;;;7027348;28;20433;-80
2022/07/18 11:39:34;;;;;;;5.33;1.80;;;27.40;48.40;;;;;;7029140;28;20438;-80
2022/07/18 11:42:58;;;;;;;5.43;1.90;;;27.50;48.90;;;;;;7035584;28;20978;-80
2022/07/18 11:46:22;;;;;;;3.28;1.90;;;27.70;48.30;;;;;;7033136;28;20437;-79
2022/07/18 11:49:56;;;;;;;4.13;1.80;;;27.80;48.40;;;;;;7029679;28;20976;-80
2022/07/18 11:53:19;;;;;;;4.45;1.90;;;28.00;48.10;;;;;;7027875;28;20429;-78
2022/07/18 11:56:50;;;;;;;4.68;1.70;;;28.20;50.10;;;;;;7025623;28;20455;-79
2022/07/18 12:00:19;;;;;;;3.50;1.80;;;28.30;49.00;;;;;;7027223;28;20792;-79
2022/07/18 12:03:44;;;;;;;3.63;1.80;;;28.30;48.80;;;;;;7024450;28;20523;-80
2022/07/18 12:07:19;;;;;;;4.38;1.83;;;28.20;47.80;;;;;;7027609;28;20437;-80
2022/07/18 12:10:42;;;;;;;9.90;6.10;;;28.30;48.00;;;;;;7030900;28;20537;-78
2022/07/18 12:14:15;;;;;;;5.15;2.20;;;28.40;50.80;;;;;;7029506;28;20430;-78
2022/07/18 12:17:46;;;;;;;5.15;1.90;;;28.70;48.80;;;;;;7028091;28;20877;-81
2022/07/18 12:21:09;;;;;;;4.93;1.90;;;28.80;47.90;;;;;;7029887;28;20426;-77
2022/07/18 12:24:33;;;;;;;4.18;1.98;;;28.90;48.60;;;;;;7026392;28;20433;-79
2022/07/18 12:27:57;;;;;;;4.20;2.00;;;29.10;47.30;;;;;;7025203;28;20507;-80
2022/07/18 12:31:38;;;;;;;5.07;1.85;;;29.10;47.80;;;;;;7027508;28;20455;-80
2022/07/18 12:35:05;;;;;;;4.95;1.80;;;29.30;48.10;;;;;;7021970;28;20439;-80
2022/07/18 12:38:27;;;;;;;4.38;2.00;;;29.40;47.70;;;;;;7024370;28;20437;-79
2022/07/18 12:41:49;;;;;;;4.47;1.73;;;29.70;48.40;;;;;;7004955;28;20478;-77
2022/07/18 12:45:15;;;;;;;4.80;1.80;;;29.80;47.70;;;;;;6994657;28;20428;-81
2022/07/18 12:48:38;;;;;;;4.15;1.90;;;29.80;46.50;;;;;;6994718;28;20439;-80
2022/07/18 12:52:00;;;;;;;4.40;1.80;;;30.00;46.90;;;;;;6993508;28;20474;-80
2022/07/18 12:55:22;;;;;;;4.10;2.00;;;29.90;46.60;;;;;;7000894;28;20517;-79
2022/07/18 12:58:44;;;;;;;5.53;3.20;;;30.00;45.80;;;;;;7022238;28;20422;-80
2022/07/18 13:02:08;;;;;;;8.52;4.93;;;30.10;46.40;;;;;;7022256;28;20437;-80
2022/07/18 13:05:32;;;;;;;5.32;1.77;;;30.40;46.20;;;;;;7009407;28;20432;-78
2022/07/18 13:08:54;;;;;;;4.20;1.80;;;30.40;46.00;;;;;;6994371;28;20474;-79
2022/07/18 13:12:16;;;;;;;4.63;1.70;;;30.50;45.00;;;;;;7038966;28;20482;-78
2022/07/18 13:15:38;;;;;;;3.38;1.63;;;30.80;46.00;;;;;;7050243;28;20855;-79
2022/07/18 13:19:02;;;;;;;3.88;1.70;;;30.90;45.40;;;;;;7050713;28;20920;-77
2022/07/18 13:22:24;;;;;;;4.45;2.00;;;30.80;45.60;;;;;;7047112;28;20460;-80
2022/07/18 13:25:46;;;;;;;4.70;1.60;;;31.00;44.80;;;;;;7023373;28;20481;-82
2022/07/18 13:29:08;;;;;;;4.45;1.60;;;31.20;44.60;;;;;;7020674;28;20563;-78
2022/07/18 13:32:31;;;;;;;4.40;1.60;;;31.20;43.90;;;;;;7022748;28;20512;-78
2022/07/18 13:35:54;;;;;;;4.82;1.70;;;31.20;43.40;;;;;;7023075;28;20443;-80
2022/07/18 13:39:17;;;;;;;5.30;2.00;;;31.30;43.00;;;;;;7021318;28;20934;-80
2022/07/18 13:42:39;;;;;;;4.03;1.50;;;31.30;43.60;;;;;;7022164;28;20476;-80
2022/07/18 13:46:01;;;;;;;5.00;1.80;;;31.60;44.30;;;;;;7024135;28;20483;-78
2022/07/18 13:49:23;;;;;;;5.07;1.90;;;31.60;42.60;;;;;;7021488;28;20468;-77
2022/07/18 13:52:46;;;;;;;4.77;1.73;;;31.60;42.10;;;;;;7021879;28;20433;-79
2022/07/18 13:56:08;;;;;;;4.30;1.52;;;31.50;41.90;;;;;;7021391;28;20457;-79
2022/07/18 13:59:30;;;;;;;3.95;1.70;;;31.70;42.20;;;;;;7021981;28;20472;-80
2022/07/18 14:02:53;;;;;;;4.75;1.80;;;31.80;42.30;;;;;;7024862;28;20874;-79
2022/07/18 14:06:15;;;;;;;5.30;1.80;;;31.90;42.50;;;;;;7019320;28;20444;-79
2022/07/18 14:09:39;;;;;;;5.13;1.70;;;32.10;43.40;;;;;;7042421;28;20928;-80
2022/07/18 14:13:01;;;;;;;4.32;2.00;;;32.10;42.40;;;;;;7028872;28;20928;-79
2022/07/18 14:16:23;;;;;;;4.68;1.70;;;32.20;43.00;;;;;;6999871;28;20425;-78
2022/07/18 14:19:45;;;;;;;3.63;1.60;;;32.20;42.30;;;;;;6998339;28;20439;-79
2022/07/18 14:23:08;;;;;;;4.22;1.70;;;32.50;42.00;;;;;;7022806;28;20437;-78
2022/07/18 14:26:31;;;;;;;4.47;1.87;;;32.40;42.00;;;;;;7031731;28;20478;-79
2022/07/18 14:29:53;;;;;;;4.60;1.63;;;32.50;42.60;;;;;;7045421;28;20455;-78
2022/07/18 14:33:15;;;;;;;5.53;1.80;;;32.60;42.40;;;;;;7039890;28;20462;-80
2022/07/18 14:36:39;;;;;;;4.10;1.80;;;32.70;42.30;;;;;;7044087;28;20412;-78
2022/07/18 14:40:01;;;;;;;5.30;1.90;;;32.90;42.80;;;;;;7006665;28;20493;-80
2022/07/18 14:43:25;;;;;;;5.37;1.60;;;33.10;42.40;;;;;;7020321;28;20930;-80
2022/07/18 14:46:47;;;;;;;5.05;1.73;;;33.00;41.30;;;;;;7019919;28;20486;-79
2022/07/18 14:50:10;;;;;;;4.77;1.70;;;33.20;41.50;;;;;;7034002;28;20779;-81
2022/07/18 14:53:32;;;;;;;4.50;1.60;;;33.10;40.50;;;;;;7033334;28;20422;-79
2022/07/18 14:56:54;;;;;;;3.70;1.70;;;33.20;41.20;;;;;;7029810;28;20936;-78
2022/07/18 15:00:18;;;;;;;4.18;1.95;;;33.30;42.00;;;;;;7030762;28;20440;-77
2022/07/18 15:03:40;;;;;;;4.47;1.80;;;33.50;42.10;;;;;;7025217;28;20433;-77
2022/07/18 15:07:02;;;;;;;4.75;1.80;;;33.60;41.20;;;;;;7038730;28;20480;-77
2022/07/18 15:10:24;;;;;;;5.03;1.70;;;33.70;41.20;;;;;;7017407;28;20468;-80
2022/07/18 15:13:48;;;;;;;3.72;1.70;;;33.60;41.10;;;;;;7017400;28;20433;-78
2022/07/18 15:17:11;;;;;;;5.93;1.70;;;33.50;40.50;;;;;;7038884;28;20425;-78
2022/07/18 15:20:33;;;;;;;11.48;7.30;;;33.40;39.70;;;;;;7025231;28;20509;-78
2022/07/18 15:23:55;;;;;;;10.27;7.43;;;33.50;39.30;;;;;;7028247;28;20480;-77
2022/07/18 15:27:17;;;;;;;4.30;2.13;;;33.70;41.10;;;;;;7048754;28;20797;-78
2022/07/18 15:30:39;;;;;;;3.90;1.55;;;33.80;39.80;;;;;;7043888;28;20479;-78
2022/07/18 15:34:03;;;;;;;4.60;1.70;;;33.70;40.00;;;;;;7026933;28;20453;-78
2022/07/18 15:37:25;;;;;;;4.00;1.63;;;33.90;40.50;;;;;;7025194;28;20813;-79
2022/07/18 15:40:47;;;;;;;5.25;1.60;;;33.90;40.30;;;;;;7032550;28;20451;-80
2022/07/18 15:44:10;;;;;;;2.97;1.50;;;34.00;39.50;;;;;;7053299;28;20435;-80
2022/07/18 15:47:32;;;;;;;4.28;1.45;;;34.00;38.40;;;;;;7034207;28;20768;-79
2022/07/18 15:50:55;;;;;;;3.88;1.40;;;34.00;39.60;;;;;;7027539;28;20434;-78
2022/07/18 15:54:18;;;;;;;3.65;1.35;;;33.90;38.10;;;;;;7027669;28;20467;-77
2022/07/18 15:57:40;;;;;;;3.60;1.45;;;34.00;39.50;;;;;;7025108;28;20437;-78
2022/07/18 16:01:02;;;;;;;3.10;1.40;;;34.20;37.90;;;;;;7029680;28;20862;-75
2022/07/18 16:04:25;;;;;;;5.38;1.38;;;34.20;39.70;;;;;;7046016;28;20483;-78
2022/07/18 16:07:48;;;;;;;4.63;1.60;;;34.30;39.50;;;;;;7025197;28;20441;-78
2022/07/18 16:11:11;;;;;;;4.57;1.45;;;34.50;39.70;;;;;;7023205;28;20441;-75
2022/07/18 16:14:33;;;;;;;4.20;1.40;;;34.70;39.20;;;;;;7022423;28;20440;-78
2022/07/18 16:17:55;;;;;;;4.50;1.65;;;34.80;38.90;;;;;;7017266;28;20466;-76
2022/07/18 16:21:17;;;;;;;3.47;1.40;;;35.10;38.60;;;;;;7022892;28;20947;-77
2022/07/18 16:24:41;;;;;;;4.20;1.40;;;34.80;38.00;;;;;;7030009;28;20439;-78
2022/07/18 16:28:04;;;;;;;4.85;1.50;;;34.70;38.80;;;;;;7031930;28;20449;-76
2022/07/18 16:31:26;;;;;;;4.15;1.60;;;34.50;38.10;;;;;;7022360;28;20836;-76
2022/07/18 16:34:48;;;;;;;5.45;1.70;;;34.40;39.20;;;;;;7019687;28;20543;-76
2022/07/18 16:38:10;;;;;;;10.50;5.73;;;34.40;38.60;;;;;;7020269;28;20547;-78
2022/07/18 16:41:33;;;;;;;15.30;10.80;;;34.20;38.20;;;;;;7019842;28;21309;-77
2022/07/18 16:44:56;;;;;;;13.27;8.95;;;34.50;39.70;;;;;;7019099;28;20434;-79
2022/07/18 16:48:19;;;;;;;4.13;1.85;;;34.80;38.30;;;;;;7019082;28;21244;-78
2022/07/18 16:51:42;;;;;;;4.40;1.80;;;34.80;38.40;;;;;;7017262;28;20483;-79
2022/07/18 16:55:06;;;;;;;4.40;1.50;;;34.70;38.30;;;;;;7002872;28;20435;-76
2022/07/18 16:58:30;;;;;;;3.43;1.40;;;34.70;38.50;;;;;;6995181;28;20438;-77
2022/07/18 17:01:52;;;;;;;3.00;1.65;;;34.50;38.20;;;;;;6995080;28;21139;-76
2022/07/18 17:05:17;;;;;;;5.13;2.40;;;34.50;38.60;;;;;;6994616;28;20469;-79
2022/07/18 17:08:40;;;;;;;5.10;2.00;;;34.50;39.00;;;;;;6996470;28;20431;-80
2022/07/18 17:12:02;;;;;;;3.55;1.80;;;34.50;38.10;;;;;;6994837;28;20466;-78
2022/07/18 17:15:26;;;;;;;5.20;1.58;;;34.50;38.40;;;;;;7001405;28;20463;-77
2022/07/18 17:18:49;;;;;;;4.03;1.70;;;34.50;39.50;;;;;;6994568;28;20454;-77
2022/07/18 17:22:13;;;;;;;4.10;1.50;;;34.70;40.00;;;;;;6994026;28;20439;-78
2022/07/18 17:25:37;;;;;;;5.03;1.67;;;34.50;39.60;;;;;;6993982;28;20466;-78
2022/07/18 17:29:00;;;;;;;5.80;2.40;;;34.50;40.30;;;;;;6992936;28;20436;-78
2022/07/18 17:32:24;;;;;;;5.90;2.72;;;34.50;39.80;;;;;;7001280;28;20525;-80
2022/07/18 17:35:49;;;;;;;4.27;2.20;;;34.50;41.00;;;;;;7020799;28;20436;-80
2022/07/18 17:39:11;;;;;;;5.63;1.95;;;34.60;42.00;;;;;;7021604;28;20788;-78